Time;durP1;ratioP1;P1;durP2;ratioP2;P2;SDS_P1;SDS_P2;PMS_P1;PMS_P2;Temp;Humidity;BMP_temperature;BMP_pressure;BME280_temperature;BME280_humidity;BME280_pressure;Samples;Min_cycle;Max_cycle;Signal;HPM_P1;HPM_P2
2024/02/11 00:02:12;;;;;;;88.70;39.60;;;;;;;2.90;89.13;99600.11;108870;1254;140065;-59
2024/02/11 00:04:41;;;;;;;95.30;39.60;;;;;;;2.91;89.14;99597.58;109170;1256;60154;-59
2024/02/11 00:07:08;;;;;;;93.50;40.40;;;;;;;2.92;89.15;99600.39;106448;1254;62080;-68
2024/02/11 00:09:35;;;;;;;92.70;40.30;;;;;;;2.95;89.31;99601.86;108730;1256;139053;-67
2024/02/11 00:12:02;;;;;;;90.30;40.80;;;;;;;2.96;89.33;99605.35;106412;1257;66616;-68
2024/02/11 00:14:28;;;;;;;90.50;40.40;;;;;;;2.97;89.45;99606.78;104711;1261;138709;-58
2024/02/11 00:16:59;;;;;;;85.10;39.10;;;;;;;2.97;89.47;99608.52;105146;1257;62059;-60
2024/02/11 00:19:26;;;;;;;91.40;39.30;;;;;;;2.96;89.34;99611.42;109189;1254;59835;-68
2024/02/11 00:21:53;;;;;;;98.10;41.30;;;;;;;2.92;89.35;99610.94;108104;1256;138568;-69
2024/02/11 00:24:23;;;;;;;93.60;40.90;;;;;;;2.90;89.34;99604.30;105215;1259;65749;-68
2024/02/11 00:26:50;;;;;;;85.00;37.30;;;;;;;2.91;89.52;99603.64;107952;1256;138802;-59
2024/02/11 00:29:18;;;;;;;88.60;40.60;;;;;;;2.92;89.58;99596.59;105027;1255;62165;-59
2024/02/11 00:31:44;;;;;;;87.70;38.40;;;;;;;2.94;89.69;99592.65;104943;1259;138950;-59
2024/02/11 00:34:12;;;;;;;92.80;39.30;;;;;;;2.93;89.67;99587.26;105103;1256;76436;-60
2024/02/11 00:36:40;;;;;;;108.80;44.80;;;;;;;2.93;89.63;99587.95;105135;1258;64739;-60
2024/02/11 00:39:07;;;;;;;117.30;40.80;;;;;;;2.90;89.52;99584.35;104899;1256;138921;-59
2024/02/11 00:41:39;;;;;;;97.20;39.00;;;;;;;2.85;89.61;99581.41;105019;1259;61939;-60
2024/02/11 00:44:08;;;;;;;96.90;40.50;;;;;;;2.81;89.46;99578.49;109133;1254;139464;-61
2024/02/11 00:46:36;;;;;;;84.10;36.00;;;;;;;2.77;89.46;99576.08;109054;1254;75507;-59
2024/02/11 00:49:04;;;;;;;82.30;39.40;;;;;;;2.72;89.36;99572.80;109257;1254;65019;-59
2024/02/11 00:51:33;;;;;;;91.30;38.40;;;;;;;2.68;89.54;99566.73;109166;1255;139885;-59
2024/02/11 00:53:59;;;;;;;81.30;37.60;;;;;;;2.68;89.64;99562.77;107806;1258;60360;-60
2024/02/11 00:56:26;;;;;;;90.80;40.80;;;;;;;2.67;89.61;99561.52;109112;1254;138810;-59
2024/02/11 00:58:53;;;;;;;84.90;39.90;;;;;;;2.69;89.71;99559.65;109209;1254;74954;-59
2024/02/11 01:01:22;;;;;;;92.10;39.00;;;;;;;2.72;90.06;99557.19;105388;1255;66346;-59
2024/02/11 01:03:49;;;;;;;82.40;38.40;;;;;;;2.74;89.92;99565.92;105044;1259;138806;-60
2024/02/11 01:06:16;;;;;;;87.90;39.20;;;;;;;2.74;89.96;99567.30;104990;1261;62164;-60
2024/02/11 01:08:43;;;;;;;95.20;39.50;;;;;;;2.72;89.98;99568.13;104890;1257;138972;-60
2024/02/11 01:11:09;;;;;;;105.60;41.00;;;;;;;2.71;90.10;99566.70;104812;1257;75443;-60
2024/02/11 01:13:36;;;;;;;89.40;38.90;;;;;;;2.70;90.14;99568.02;104902;1258;140059;-59
2024/02/11 01:16:04;;;;;;;87.10;39.70;;;;;;;2.73;90.31;99566.41;104919;1257;71864;-59
2024/02/11 01:18:30;;;;;;;86.20;38.10;;;;;;;2.75;90.46;99570.30;109251;1254;59837;-60
2024/02/11 01:20:57;;;;;;;90.00;39.00;;;;;;;2.75;90.44;99568.75;109120;1256;138808;-60
2024/02/11 01:23:24;;;;;;;92.00;37.90;;;;;;;2.76;90.51;99565.99;106283;1258;75696;-58
2024/02/11 01:25:51;;;;;;;83.80;36.30;;;;;;;2.76;90.45;99565.30;104949;1257;138849;-59
2024/02/11 01:28:18;;;;;;;73.00;36.50;;;;;;;2.81;90.82;99568.42;105165;1257;72312;-60
2024/02/11 01:30:45;;;;;;;82.60;38.00;;;;;;;2.84;90.82;99570.64;105024;1256;62181;-60
2024/02/11 01:33:12;;;;;;;82.10;38.20;;;;;;;2.86;90.93;99570.19;104940;1257;138668;-59
2024/02/11 01:35:41;;;;;;;97.20;38.90;;;;;;;2.87;90.96;99571.28;105050;1255;75576;-64
2024/02/11 01:38:11;;;;;;;82.40;35.80;;;;;;;2.85;90.82;99572.91;104926;1259;139202;-58
2024/02/11 01:40:40;;;;;;;68.50;34.50;;;;;;;2.84;90.87;99568.02;105049;1255;73489;-59
2024/02/11 01:43:09;;;;;;;91.90;35.50;;;;;;;2.80;90.77;99570.49;104981;1258;62031;-59
2024/02/11 01:45:36;;;;;;;70.10;34.60;;;;;;;2.78;90.89;99567.96;104822;1257;139099;-59
2024/02/11 01:48:08;;;;;;;72.30;35.50;;;;;;;2.77;91.05;99571.93;109215;1254;76419;-59
2024/02/11 01:50:36;;;;;;;71.10;34.50;;;;;;;2.80;91.23;99569.27;109125;1254;138653;-59
2024/02/11 01:53:03;;;;;;;69.30;34.00;;;;;;;2.80;91.08;99567.36;107364;1257;72996;-59
2024/02/11 01:55:31;;;;;;;68.10;34.00;;;;;;;2.83;91.29;99563.32;107750;1258;62184;-59
2024/02/11 01:57:58;;;;;;;75.60;32.00;;;;;;;2.83;91.24;99564.02;104883;1254;60649;-60
2024/02/11 02:00:25;;;;;;;67.80;30.80;;;;;;;2.81;91.06;99564.27;104964;1256;74690;-59
2024/02/11 02:02:55;;;;;;;70.70;32.70;;;;;;;2.78;91.03;99563.83;104640;1260;138888;-59
2024/02/11 02:05:21;;;;;;;67.90;33.80;;;;;;;2.77;90.99;99560.14;109151;1257;73723;-59
2024/02/11 02:07:48;;;;;;;65.10;31.10;;;;;;;2.76;91.21;99560.09;105320;1259;140273;-68
2024/02/11 02:10:15;;;;;;;68.30;31.00;;;;;;;2.79;91.21;99558.13;105054;1259;62059;-69
2024/02/11 02:12:42;;;;;;;70.20;32.20;;;;;;;2.78;91.26;99556.55;105107;1254;74692;-69
2024/02/11 02:15:09;;;;;;;78.80;32.40;;;;;;;2.78;91.31;99556.19;104565;1262;139154;-68
2024/02/11 02:17:36;;;;;;;71.30;32.70;;;;;;;2.79;91.38;99556.41;107290;1257;72448;-68
2024/02/11 02:20:04;;;;;;;62.90;32.80;;;;;;;2.81;91.50;99556.47;104938;1258;139776;-67
2024/02/11 02:22:31;;;;;;;65.80;31.20;;;;;;;2.78;91.30;99560.36;105119;1259;62063;-68
2024/02/11 02:24:57;;;;;;;62.50;30.40;;;;;;;2.79;91.51;99559.19;105041;1257;76569;-59
2024/02/11 02:27:24;;;;;;;59.40;30.10;;;;;;;2.84;91.78;99556.08;105119;1259;138720;-60
2024/02/11 02:29:51;;;;;;;69.70;28.60;;;;;;;2.83;91.54;99559.86;104796;1256;73174;-69
2024/02/11 02:32:17;;;;;;;65.70;30.60;;;;;;;2.82;91.48;99556.54;104951;1259;138854;-61
2024/02/11 02:34:46;;;;;;;75.40;32.00;;;;;;;2.83;91.58;99554.46;105087;1254;62083;-61
2024/02/11 02:37:13;;;;;;;72.50;31.60;;;;;;;2.81;91.62;99554.91;107874;1257;75162;-58
2024/02/11 02:39:40;;;;;;;60.60;29.00;;;;;;;2.76;91.28;99560.80;105015;1258;138610;-61
2024/02/11 02:42:07;;;;;;;56.30;30.20;;;;;;;2.68;91.21;99557.77;105040;1259;71621;-59
2024/02/11 02:44:33;;;;;;;59.00;29.20;;;;;;;2.63;91.33;99552.54;104934;1259;139230;-60
2024/02/11 02:47:00;;;;;;;63.30;26.20;;;;;;;2.61;91.40;99558.35;104778;1260;61963;-59
2024/02/11 02:49:27;;;;;;;63.20;30.50;;;;;;;2.62;91.61;99558.20;104995;1261;74888;-58
2024/02/11 02:51:57;;;;;;;65.30;30.90;;;;;;;2.65;91.78;99556.43;108827;1254;138996;-67
2024/02/11 02:54:24;;;;;;;62.00;29.90;;;;;;;2.68;91.81;99552.04;105183;1259;73797;-69
2024/02/11 02:56:51;;;;;;;57.20;28.70;;;;;;;2.67;91.78;99553.88;104943;1258;138699;-67
2024/02/11 02:59:17;;;;;;;67.90;29.00;;;;;;;2.67;91.84;99546.78;105182;1257;62094;-68
2024/02/11 03:01:46;;;;;;;72.80;30.50;;;;;;;2.66;91.84;99538.80;105059;1255;138985;-67
2024/02/11 03:04:14;;;;;;;71.60;29.60;;;;;;;2.66;91.78;99537.21;105196;1259;65566;-68
2024/02/11 03:06:42;;;;;;;57.30;26.30;;;;;;;2.67;91.86;99534.34;106790;1257;73800;-68
2024/02/11 03:09:08;;;;;;;70.90;28.70;;;;;;;2.69;91.87;99533.35;104943;1259;138608;-68
2024/02/11 03:11:37;;;;;;;63.70;30.00;;;;;;;2.69;92.04;99529.38;104831;1262;62062;-68
2024/02/11 03:14:04;;;;;;;68.80;29.50;;;;;;;2.72;92.20;99528.09;107013;1254;139054;-68
2024/02/11 03:16:31;;;;;;;74.10;29.70;;;;;;;2.76;92.19;99532.75;105145;1259;66850;-68
2024/02/11 03:18:58;;;;;;;59.70;27.60;;;;;;;2.72;91.99;99529.67;105237;1257;74024;-68
2024/02/11 03:21:24;;;;;;;64.30;28.10;;;;;;;2.68;91.94;99534.21;104799;1262;139245;-68
2024/02/11 03:23:51;;;;;;;60.70;28.30;;;;;;;2.64;91.75;99541.13;105139;1257;62000;-67
2024/02/11 03:26:18;;;;;;;62.70;30.20;;;;;;;2.62;91.89;99543.98;104878;1255;138717;-68
2024/02/11 03:28:45;;;;;;;66.00;27.70;;;;;;;2.66;92.07;99544.49;105119;1259;67302;-68
2024/02/11 03:31:12;;;;;;;66.80;28.40;;;;;;;2.68;92.16;99543.90;105112;1257;73159;-69
2024/02/11 03:33:38;;;;;;;70.60;29.70;;;;;;;2.70;92.24;99542.56;104901;1257;138867;-68
2024/02/11 03:36:06;;;;;;;87.70;29.70;;;;;;;2.70;92.28;99535.31;104901;1257;62219;-69
2024/02/11 03:38:32;;;;;;;74.50;29.40;;;;;;;2.68;92.12;99526.90;107741;1259;138640;-68
2024/02/11 03:40:59;;;;;;;59.90;28.10;;;;;;;2.67;92.25;99528.42;105005;1259;67313;-68
2024/02/11 03:43:26;;;;;;;68.10;27.30;;;;;;;2.67;92.23;99522.88;105002;1257;72818;-68
2024/02/11 03:45:53;;;;;;;67.80;27.50;;;;;;;2.63;91.97;99520.13;104945;1257;138345;-68
2024/02/11 03:48:19;;;;;;;72.40;32.10;;;;;;;2.62;92.13;99520.45;105141;1259;61205;-69
2024/02/11 03:50:46;;;;;;;61.30;29.20;;;;;;;2.64;92.21;99521.20;104897;1255;138932;-68
2024/02/11 03:53:21;;;;;;;51.40;27.80;;;;;;;2.63;92.35;99519.64;105030;1259;67448;-68
2024/02/11 03:55:47;;;;;;;61.80;29.10;;;;;;;2.66;92.42;99520.95;104684;1262;138921;-67
2024/02/11 03:58:14;;;;;;;59.00;27.70;;;;;;;2.68;92.50;99516.54;105081;1260;60388;-67
2024/02/11 04:00:44;;;;;;;65.70;26.40;;;;;;;2.69;92.53;99513.79;104957;1260;62061;-68
2024/02/11 04:03:11;;;;;;;67.70;30.00;;;;;;;2.64;92.12;99513.95;109044;1256;138635;-68
2024/02/11 04:05:43;;;;;;;80.90;28.90;;;;;;;2.62;92.17;99519.91;109193;1254;66225;-68
2024/02/11 04:08:11;;;;;;;82.20;29.40;;;;;;;2.65;92.44;99518.13;105406;1257;139544;-68
2024/02/11 04:10:39;;;;;;;77.70;28.60;;;;;;;2.66;92.51;99522.86;104973;1262;62165;-68
2024/02/11 04:13:09;;;;;;;66.90;27.90;;;;;;;2.67;92.48;99526.55;105074;1259;62060;-68
2024/02/11 04:15:37;;;;;;;76.70;30.30;;;;;;;2.70;92.55;99534.63;104926;1257;138825;-69
2024/02/11 04:18:10;;;;;;;64.70;30.10;;;;;;;2.73;92.73;99537.16;105240;1259;67211;-69
2024/02/11 04:20:37;;;;;;;74.00;29.10;;;;;;;2.80;92.90;99534.29;104887;1258;139367;-68
2024/02/11 04:23:04;;;;;;;66.70;30.40;;;;;;;2.82;92.78;99530.00;109082;1254;60033;-69
2024/02/11 04:25:34;;;;;;;64.60;30.30;;;;;;;2.88;92.95;99526.59;107419;1257;62582;-69
2024/02/11 04:28:03;;;;;;;80.50;29.80;;;;;;;2.90;92.81;99522.70;108588;1257;74296;-68
2024/02/11 04:30:34;;;;;;;78.40;30.60;;;;;;;2.91;92.65;99527.75;105999;1259;65991;-67
2024/02/11 04:33:02;;;;;;;59.90;28.90;;;;;;;2.90;92.64;99527.03;105476;1255;138854;-68
2024/02/11 04:35:30;;;;;;;70.50;31.90;;;;;;;2.89;92.54;99529.05;104963;1259;62129;-68
2024/02/11 04:37:59;;;;;;;78.40;31.30;;;;;;;2.91;92.73;99525.50;104652;1260;139707;-68
2024/02/11 04:40:26;;;;;;;93.00;31.50;;;;;;;2.95;92.78;99527.52;108857;1254;76507;-69
2024/02/11 04:42:54;;;;;;;77.70;28.50;;;;;;;2.96;92.65;99518.22;104770;1257;66006;-69
2024/02/11 04:45:22;;;;;;;70.30;29.40;;;;;;;2.92;92.42;99515.98;106747;1259;138751;-70
2024/02/11 04:47:53;;;;;;;59.40;30.10;;;;;;;2.88;92.49;99515.16;107031;1259;62182;-68
2024/02/11 04:50:21;;;;;;;62.30;30.90;;;;;;;2.93;92.71;99510.15;109081;1254;139613;-68
2024/02/11 04:52:55;;;;;;;73.20;33.30;;;;;;;2.99;92.79;99502.52;105263;1257;74696;-68
2024/02/11 04:55:27;;;;;;;76.50;32.10;;;;;;;3.02;92.76;99498.33;105318;1255;64323;-69
2024/02/11 04:58:01;;;;;;;56.40;30.90;;;;;;;3.03;92.70;99494.70;104955;1259;139000;-69
2024/02/11 05:00:28;;;;;;;64.60;31.10;;;;;;;3.01;92.54;99489.61;105029;1258;62051;-69
2024/02/11 05:02:58;;;;;;;61.80;31.30;;;;;;;2.99;92.37;99492.32;105378;1260;139686;-69
2024/02/11 05:05:31;;;;;;;58.70;30.80;;;;;;;2.95;92.39;99490.63;109148;1257;73954;-67
2024/02/11 05:08:00;;;;;;;61.20;33.40;;;;;;;2.93;92.33;99485.35;107311;1259;138875;-67
2024/02/11 05:10:27;;;;;;;66.60;32.70;;;;;;;2.94;92.40;99486.95;107789;1256;73579;-68
2024/02/11 05:12:57;;;;;;;73.70;31.00;;;;;;;2.96;92.60;99489.11;105031;1258;62165;-68
2024/02/11 05:15:24;;;;;;;58.60;31.30;;;;;;;2.96;92.55;99487.02;104903;1257;138803;-69
2024/02/11 05:17:54;;;;;;;61.30;32.00;;;;;;;2.97;92.54;99486.70;109097;1257;75866;-68
2024/02/11 05:20:22;;;;;;;60.20;31.10;;;;;;;2.98;92.62;99485.88;106974;1254;138797;-68
2024/02/11 05:22:53;;;;;;;66.40;31.40;;;;;;;2.99;92.59;99487.30;105061;1260;72030;-67
2024/02/11 05:25:19;;;;;;;58.10;31.20;;;;;;;3.00;92.56;99498.05;109225;1255;60241;-68
2024/02/11 05:28:01;;;;;;;66.00;32.90;;;;;;;2.99;92.38;99497.17;105581;1254;139451;-68
2024/02/11 05:30:34;;;;;;;64.40;33.00;;;;;;;3.05;92.87;99501.73;107885;1258;75783;-68
2024/02/11 05:33:02;;;;;;;67.70;33.70;;;;;;;3.11;92.85;99500.19;108459;1255;140228;-67
2024/02/11 05:35:29;;;;;;;71.50;35.70;;;;;;;3.14;92.79;99503.05;109162;1254;73125;-68
2024/02/11 05:37:59;;;;;;;66.80;35.10;;;;;;;3.19;92.70;99502.19;105066;1260;139259;-68
2024/02/11 05:40:26;;;;;;;67.10;33.80;;;;;;;3.23;92.69;99498.16;105112;1259;61978;-68
2024/02/11 05:42:54;;;;;;;61.80;31.90;;;;;;;3.25;92.58;99498.43;105090;1259;75652;-68
2024/02/11 05:45:21;;;;;;;66.80;34.10;;;;;;;3.25;92.48;99494.09;106609;1254;139415;-68
2024/02/11 05:47:48;;;;;;;63.80;33.40;;;;;;;3.23;92.22;99488.64;105028;1257;71115;-68
2024/02/11 05:50:15;;;;;;;60.50;31.90;;;;;;;3.21;92.28;99486.67;104958;1260;139218;-68
2024/02/11 05:52:42;;;;;;;56.40;31.10;;;;;;;3.19;92.15;99481.06;104897;1257;60671;-68
2024/02/11 05:55:09;;;;;;;57.80;30.00;;;;;;;3.15;92.23;99479.88;105109;1259;74662;-68
2024/02/11 05:57:39;;;;;;;63.60;32.60;;;;;;;3.13;92.15;99481.20;104861;1255;138736;-68
2024/02/11 06:00:13;;;;;;;58.40;32.30;;;;;;;3.09;92.28;99478.65;105035;1260;73472;-68
2024/02/11 06:02:42;;;;;;;60.50;31.70;;;;;;;3.09;92.31;99476.38;104959;1259;138627;-68
2024/02/11 06:05:15;;;;;;;67.00;34.10;;;;;;;3.11;92.41;99474.02;105068;1259;62061;-68
2024/02/11 06:07:45;;;;;;;64.30;32.60;;;;;;;3.11;92.43;99483.40;104916;1257;138916;-68
2024/02/11 06:10:13;;;;;;;61.20;31.00;;;;;;;3.11;92.48;99487.38;109233;1257;64832;-68
2024/02/11 06:12:40;;;;;;;59.70;30.40;;;;;;;3.12;92.39;99489.64;109009;1254;72901;-68
2024/02/11 06:15:08;;;;;;;59.60;31.10;;;;;;;3.14;92.63;99489.02;109053;1254;138707;-68
2024/02/11 06:17:36;;;;;;;60.60;31.40;;;;;;;3.18;92.58;99489.70;106984;1254;62053;-68
2024/02/11 06:20:09;;;;;;;51.60;29.60;;;;;;;3.21;92.44;99490.48;105048;1257;139723;-68
2024/02/11 06:22:36;;;;;;;58.80;34.20;;;;;;;3.23;92.38;99488.98;106363;1259;66740;-68
2024/02/11 06:25:03;;;;;;;65.60;32.70;;;;;;;3.25;92.42;99487.67;104863;1260;73893;-68
2024/02/11 06:27:32;;;;;;;77.20;42.60;;;;;;;3.26;92.37;99490.46;109029;1257;139975;-69
2024/02/11 06:29:59;;;;;;;62.30;33.40;;;;;;;3.26;92.22;99490.83;109224;1254;60310;-69
2024/02/11 06:32:26;;;;;;;60.80;32.20;;;;;;;3.24;92.09;99491.10;108889;1256;139060;-68
2024/02/11 06:34:53;;;;;;;58.20;30.10;;;;;;;3.24;92.14;99493.36;109074;1256;65141;-68
2024/02/11 06:37:19;;;;;;;54.60;29.20;;;;;;;3.24;92.07;99493.88;109134;1256;70860;-68
2024/02/11 06:39:46;;;;;;;60.80;32.20;;;;;;;3.26;92.11;99490.98;108969;1256;138664;-69
2024/02/11 06:42:14;;;;;;;60.10;31.90;;;;;;;3.28;92.16;99488.45;109135;1256;60385;-68
2024/02/11 06:44:41;;;;;;;61.90;31.20;;;;;;;3.31;92.24;99486.14;108930;1259;139198;-68
2024/02/11 06:47:11;;;;;;;64.10;32.90;;;;;;;3.32;92.06;99490.67;109064;1257;67648;-68
2024/02/11 06:49:38;;;;;;;59.60;32.80;;;;;;;3.31;92.01;99490.83;108887;1257;139744;-67
2024/02/11 06:52:09;;;;;;;62.80;35.60;;;;;;;3.34;92.10;99494.89;107670;1259;62161;-68
2024/02/11 06:54:39;;;;;;;55.90;32.00;;;;;;;3.41;92.32;99502.95;109197;1254;59891;-69
2024/02/11 06:57:05;;;;;;;53.60;30.00;;;;;;;3.51;92.57;99503.43;109092;1254;139036;-68
2024/02/11 06:59:35;;;;;;;56.80;31.30;;;;;;;3.56;92.40;99502.05;109198;1254;66579;-68
2024/02/11 07:02:04;;;;;;;45.50;27.80;;;;;;;3.63;92.43;99502.45;108577;1257;140382;-68
2024/02/11 07:04:33;;;;;;;52.00;29.70;;;;;;;3.67;92.29;99502.26;109134;1257;59884;-68
2024/02/11 07:07:02;;;;;;;52.50;27.70;;;;;;;3.70;92.19;99503.37;109213;1255;59812;-68
2024/02/11 07:09:29;;;;;;;46.00;26.90;;;;;;;3.74;92.12;99505.56;109063;1259;139328;-68
2024/02/11 07:11:57;;;;;;;52.90;29.50;;;;;;;3.78;92.01;99505.19;109171;1258;66000;-67
2024/02/11 07:14:25;;;;;;;42.40;26.00;;;;;;;3.83;91.97;99503.98;109059;1257;139574;-68
2024/02/11 07:16:53;;;;;;;47.00;27.00;;;;;;;3.85;91.91;99502.84;106809;1256;62052;-68
2024/02/11 07:19:24;;;;;;;47.80;28.10;;;;;;;3.84;91.65;99499.67;104913;1257;62063;-67
2024/02/11 07:21:52;;;;;;;131.50;71.80;;;;;;;3.85;91.53;99497.42;104713;1260;138605;-69
2024/02/11 07:24:19;;;;;;;120.40;58.90;;;;;;;3.79;91.53;99495.15;104756;1261;66963;-68
2024/02/11 07:26:49;;;;;;;67.50;37.60;;;;;;;3.78;91.57;99495.48;104824;1258;138811;-68
2024/02/11 07:29:17;;;;;;;157.60;81.90;;;;;;;3.80;91.66;99496.39;104991;1260;62058;-69
2024/02/11 07:31:43;;;;;;;89.50;51.30;;;;;;;3.76;91.52;99494.02;109067;1257;140881;-67
2024/02/11 07:34:10;;;;;;;84.40;52.80;;;;;;;3.76;91.62;99492.80;109156;1257;76245;-69
2024/02/11 07:36:42;;;;;;;52.70;32.10;;;;;;;3.80;91.79;99492.24;109170;1257;67005;-68
2024/02/11 07:39:08;;;;;;;64.00;39.80;;;;;;;3.81;91.80;99495.57;108900;1255;139404;-69
2024/02/11 07:41:35;;;;;;;72.30;47.20;;;;;;;3.87;91.94;99493.31;107702;1260;62168;-68
2024/02/11 07:44:03;;;;;;;46.70;27.10;;;;;;;3.92;91.98;99497.46;105776;1259;138944;-69
2024/02/11 07:46:30;;;;;;;44.20;27.10;;;;;;;3.98;92.00;99497.14;109152;1256;75830;-69
2024/02/11 07:49:03;;;;;;;41.80;26.80;;;;;;;4.04;91.91;99498.02;109206;1254;67657;-69
2024/02/11 07:51:30;;;;;;;44.80;28.90;;;;;;;4.09;91.88;99494.73;105722;1258;139388;-68
2024/02/11 07:53:57;;;;;;;53.20;32.60;;;;;;;4.08;91.58;99496.94;105170;1259;62494;-68
2024/02/11 07:56:25;;;;;;;68.70;44.40;;;;;;;4.05;91.40;99498.42;105056;1261;138577;-59
2024/02/11 07:58:52;;;;;;;49.40;33.20;;;;;;;4.06;91.56;99494.10;105644;1256;76529;-59
2024/02/11 08:01:18;;;;;;;75.50;56.20;;;;;;;4.09;91.56;99496.79;104970;1260;66974;-59
2024/02/11 08:03:47;;;;;;;44.90;27.30;;;;;;;4.07;91.33;99500.89;105040;1260;138748;-59
2024/02/11 08:06:14;;;;;;;57.50;36.90;;;;;;;4.03;91.35;99503.02;105318;1271;62148;-60
2024/02/11 08:08:41;;;;;;;51.30;33.90;;;;;;;4.02;91.34;99505.78;104771;1264;138716;-59
2024/02/11 08:11:08;;;;;;;45.20;28.90;;;;;;;3.98;91.25;99509.14;104847;1256;75667;-60
2024/02/11 08:13:35;;;;;;;50.60;34.70;;;;;;;3.96;91.22;99506.82;104934;1260;138855;-60
2024/02/11 08:16:03;;;;;;;45.00;28.90;;;;;;;3.95;91.34;99507.11;104933;1259;73200;-61
2024/02/11 08:18:30;;;;;;;51.40;33.40;;;;;;;3.99;91.51;99503.58;105048;1260;62176;-60
2024/02/11 08:20:57;;;;;;;52.90;35.10;;;;;;;4.00;91.50;99505.20;104911;1270;138673;-59
2024/02/11 08:23:25;;;;;;;47.60;31.90;;;;;;;4.04;91.55;99506.34;105202;1254;74895;-60
2024/02/11 08:25:54;;;;;;;58.60;39.10;;;;;;;4.05;91.56;99507.63;104952;1260;139331;-60
2024/02/11 08:28:21;;;;;;;53.10;35.90;;;;;;;4.06;91.49;99504.17;104956;1260;72405;-60
2024/02/11 08:30:48;;;;;;;54.70;37.60;;;;;;;4.09;91.52;99507.55;104871;1254;62086;-60
2024/02/11 08:33:18;;;;;;;40.20;25.60;;;;;;;4.11;91.45;99504.33;104900;1260;138615;-60
2024/02/11 08:35:47;;;;;;;56.00;38.60;;;;;;;4.15;91.50;99504.79;104966;1260;75837;-60
2024/02/11 08:38:14;;;;;;;135.30;93.10;;;;;;;4.20;91.48;99507.20;104699;1260;138767;-61
2024/02/11 08:40:41;;;;;;;69.00;47.20;;;;;;;4.30;91.73;99504.88;104911;1257;72114;-60
2024/02/11 08:43:08;;;;;;;45.10;31.50;;;;;;;4.39;91.59;99503.75;105042;1260;62044;-59
2024/02/11 08:45:36;;;;;;;41.20;29.50;;;;;;;4.44;91.41;99502.36;104723;1257;139014;-60
2024/02/11 08:48:03;;;;;;;40.90;28.80;;;;;;;4.49;91.41;99497.82;105008;1263;74881;-59
2024/02/11 08:50:31;;;;;;;33.60;24.50;;;;;;;4.58;91.47;99501.02;105697;1260;138878;-59
2024/02/11 08:52:59;;;;;;;34.60;24.10;;;;;;;4.64;91.32;99501.02;105038;1263;72657;-61
2024/02/11 08:55:27;;;;;;;30.70;22.30;;;;;;;4.67;91.16;99501.29;107165;1257;62027;-60
2024/02/11 08:57:54;;;;;;;28.90;19.90;;;;;;;4.75;91.26;99502.73;105108;1260;139075;-60
2024/02/11 09:00:24;;;;;;;25.90;20.10;;;;;;;4.84;91.13;99502.27;104835;1263;76096;-59
2024/02/11 09:02:51;;;;;;;28.70;19.10;;;;;;;4.89;90.93;99500.84;105474;1257;138984;-61
2024/02/11 09:05:20;;;;;;;26.90;19.20;;;;;;;4.96;91.02;99501.40;104978;1258;72962;-60
2024/02/11 09:07:47;;;;;;;27.80;19.50;;;;;;;5.03;90.91;99495.31;104832;1264;139334;-60
2024/02/11 09:10:14;;;;;;;27.10;18.70;;;;;;;5.11;90.82;99492.40;105063;1263;62715;-60
2024/02/11 09:12:42;;;;;;;33.90;20.80;;;;;;;5.17;90.67;99493.98;104929;1263;76463;-59
2024/02/11 09:15:09;;;;;;;27.70;20.60;;;;;;;5.19;90.29;99494.01;104851;1263;138900;-58
2024/02/11 09:17:42;;;;;;;26.00;19.60;;;;;;;5.18;90.09;99495.38;106349;1259;70962;-61
2024/02/11 09:20:12;;;;;;;26.80;18.60;;;;;;;5.18;89.91;99493.27;104816;1257;139200;-61
2024/02/11 09:22:39;;;;;;;24.90;18.90;;;;;;;5.17;89.81;99491.52;105918;1259;62261;-62
2024/02/11 09:25:08;;;;;;;24.60;19.20;;;;;;;5.19;89.82;99490.34;107315;1257;259321;-60
2024/02/11 09:27:35;;;;;;;29.20;21.20;;;;;;;5.20;89.73;99484.80;107105;1254;139054;-61
2024/02/11 09:30:03;;;;;;;30.10;21.10;;;;;;;5.19;89.51;99482.88;105726;1254;73637;-61
2024/02/11 09:32:29;;;;;;;26.50;19.00;;;;;;;5.19;89.58;99485.48;105070;1259;138961;-60
2024/02/11 09:34:56;;;;;;;29.90;19.30;;;;;;;5.20;89.63;99487.23;105058;1260;62070;-60
2024/02/11 09:37:24;;;;;;;23.80;18.20;;;;;;;5.18;89.37;99486.34;104897;1260;77473;-60
2024/02/11 09:39:51;;;;;;;27.50;19.90;;;;;;;5.21;89.62;99488.49;104836;1260;139611;-59
2024/02/11 09:42:20;;;;;;;24.50;19.10;;;;;;;5.21;89.36;99491.28;105232;1255;73647;-59
2024/02/11 09:44:47;;;;;;;29.80;20.10;;;;;;;5.22;89.46;99495.30;104853;1261;138884;-59
2024/02/11 09:47:16;;;;;;;27.80;21.00;;;;;;;5.22;89.43;99489.23;106239;1254;62397;-59
2024/02/11 09:49:46;;;;;;;30.30;21.90;;;;;;;5.28;89.62;99490.73;104896;1255;140529;-59
2024/02/11 09:52:14;;;;;;;28.00;20.60;;;;;;;5.33;89.59;99489.30;105536;1260;66025;-61
2024/02/11 09:54:43;;;;;;;31.80;21.50;;;;;;;5.36;89.37;99489.58;105230;1263;72728;-58
2024/02/11 09:57:11;;;;;;;26.60;20.30;;;;;;;5.41;89.56;99483.96;108027;1257;138976;-59
2024/02/11 09:59:39;;;;;;;32.10;20.80;;;;;;;5.51;89.56;99486.98;105578;1254;62139;-59
2024/02/11 10:02:11;;;;;;;28.30;20.70;;;;;;;5.56;89.32;99478.58;105524;1255;139126;-60
2024/02/11 10:04:39;;;;;;;27.90;19.30;;;;;;;5.61;89.30;99476.81;105745;1254;66347;-60
2024/02/11 10:07:06;;;;;;;26.90;19.40;;;;;;;5.71;89.26;99475.30;105048;1254;73281;-60
2024/02/11 10:09:33;;;;;;;28.50;19.40;;;;;;;5.77;89.12;99476.48;104785;1254;139150;-59
2024/02/11 10:11:59;;;;;;;28.10;20.00;;;;;;;5.81;88.96;99477.80;105147;1261;62680;-60
2024/02/11 10:14:29;;;;;;;25.40;19.70;;;;;;;5.82;88.66;99478.17;105021;1255;139138;-60
2024/02/11 10:16:59;;;;;;;25.50;18.30;;;;;;;5.82;88.47;99475.39;105259;1254;66706;-60
2024/02/11 10:19:28;;;;;;;25.50;18.60;;;;;;;5.81;88.41;99478.48;105306;1260;73710;-61
2024/02/11 10:21:56;;;;;;;40.50;26.40;;;;;;;5.80;88.25;99480.76;108312;1254;139017;-62
2024/02/11 10:24:25;;;;;;;28.00;20.00;;;;;;;5.84;88.37;99483.27;108355;1255;60907;-61
2024/02/11 10:26:52;;;;;;;30.90;20.40;;;;;;;5.86;88.25;99480.53;105253;1260;139613;-60
2024/02/11 10:29:20;;;;;;;29.10;20.30;;;;;;;5.89;88.19;99481.80;104866;1255;66701;-60
2024/02/11 10:31:47;;;;;;;28.00;20.40;;;;;;;5.93;88.24;99477.90;104902;1263;139608;-61
2024/02/11 10:34:14;;;;;;;27.30;19.20;;;;;;;5.97;88.15;99474.72;105020;1261;62172;-60
2024/02/11 10:36:41;;;;;;;31.40;21.50;;;;;;;6.00;88.03;99472.52;105208;1258;61976;-60
2024/02/11 10:39:07;;;;;;;28.10;20.30;;;;;;;6.01;87.92;99472.55;104988;1254;138886;-61
2024/02/11 10:41:37;;;;;;;32.10;21.70;;;;;;;6.05;87.91;99470.02;105141;1255;65715;-60
2024/02/11 10:44:06;;;;;;;28.60;20.80;;;;;;;6.10;88.00;99467.16;104725;1257;138427;-60
2024/02/11 10:46:33;;;;;;;30.00;21.40;;;;;;;6.15;88.03;99462.23;105288;1260;62062;-60
2024/02/11 10:49:00;;;;;;;30.10;22.00;;;;;;;6.15;87.68;99460.30;107263;1258;62080;-60
2024/02/11 10:51:31;;;;;;;31.50;21.80;;;;;;;6.11;87.53;99460.75;106270;1254;140995;-61
2024/02/11 10:54:00;;;;;;;31.50;22.40;;;;;;;6.10;87.58;99459.33;107205;1258;64813;-60
2024/02/11 10:56:30;;;;;;;31.20;21.80;;;;;;;6.09;87.36;99460.89;105379;1254;138933;-61
2024/02/11 10:59:27;;;;;;;31.00;22.00;;;;;;;6.04;87.25;99457.30;105552;1262;62066;-60
2024/02/11 11:01:56;;;;;;;32.70;21.50;;;;;;;6.08;87.47;99454.77;106898;1256;139398;-60
2024/02/11 11:04:23;;;;;;;30.60;21.80;;;;;;;6.13;87.62;99451.05;105249;1254;75961;-61
2024/02/11 11:06:51;;;;;;;29.90;21.90;;;;;;;6.15;87.42;99452.14;108996;1254;68399;-61
2024/02/11 11:09:20;;;;;;;32.30;23.30;;;;;;;6.19;87.53;99448.91;105911;1254;139014;-60
2024/02/11 11:11:46;;;;;;;29.00;21.40;;;;;;;6.23;87.35;99450.04;105151;1254;62189;-60
2024/02/11 11:14:13;;;;;;;29.20;20.10;;;;;;;6.22;87.04;99445.67;105148;1255;139038;-63
2024/02/11 11:16:43;;;;;;;29.40;21.00;;;;;;;6.14;86.88;99443.76;104831;1254;76460;-60
2024/02/11 11:19:12;;;;;;;29.60;20.90;;;;;;;6.13;87.06;99444.42;104947;1260;66854;-61